createdAt,value
2022-10-21T00:02:35.338Z,27.80
2022-10-21T00:05:37.848Z,27.60
2022-10-21T00:08:40.250Z,27.50
2022-10-21T00:11:42.675Z,27.20
2022-10-21T00:14:46.362Z,27.40
2022-10-21T00:17:48.605Z,27.40
2022-10-21T00:20:50.669Z,27.30
2022-10-21T00:23:52.621Z,27.10
2022-10-21T00:26:56.220Z,27.00
2022-10-21T00:29:58.152Z,26.80
2022-10-21T00:33:02.947Z,27.00
2022-10-21T00:36:07.472Z,26.90
2022-10-21T00:39:09.557Z,26.90
2022-10-21T00:42:17.736Z,26.70
2022-10-21T00:45:22.548Z,27.10
2022-10-21T00:48:39.941Z,27.50
2022-10-21T00:51:42.477Z,27.40
2022-10-21T00:54:45.610Z,27.40
2022-10-21T00:57:47.914Z,27.60
2022-10-21T01:00:51.564Z,27.60
2022-10-21T01:03:53.777Z,27.60
2022-10-21T01:06:57.106Z,27.70
2022-10-21T01:09:59.916Z,27.60
2022-10-21T01:13:16.840Z,27.70
2022-10-21T01:17:03.006Z,27.90
2022-10-21T01:20:38.867Z,27.70
2022-10-21T01:24:18.712Z,27.70
2022-10-21T01:27:46.306Z,27.80
2022-10-21T01:31:20.707Z,27.80
2022-10-21T01:34:34.067Z,28.00
2022-10-21T01:38:09.901Z,28.00
2022-10-21T01:41:30.296Z,27.80
2022-10-21T01:44:44.181Z,28.00
2022-10-21T01:47:56.052Z,27.70
2022-10-21T01:51:08.988Z,27.70
2022-10-21T01:54:18.992Z,27.40
2022-10-21T01:57:24.877Z,27.50
2022-10-21T02:00:26.829Z,27.30
2022-10-21T02:03:37.275Z,27.30
2022-10-21T02:06:39.725Z,26.90
2022-10-21T02:09:41.826Z,27.00
2022-10-21T02:12:47.579Z,27.00
2022-10-21T02:15:52.744Z,27.30
2022-10-21T02:18:56.081Z,27.40
2022-10-21T02:22:02.479Z,27.50
2022-10-21T02:25:27.808Z,27.70
2022-10-21T02:28:30.145Z,27.80
2022-10-21T02:31:47.909Z,27.70
2022-10-21T02:35:08.227Z,27.70
2022-10-21T02:38:27.766Z,27.70
2022-10-21T02:41:32.362Z,27.80
2022-10-21T02:44:34.393Z,27.80
2022-10-21T02:47:38.505Z,27.70
2022-10-21T02:50:40.849Z,27.80
2022-10-21T02:53:43.362Z,27.60
2022-10-21T02:56:45.310Z,27.50
2022-10-21T02:59:47.400Z,27.60
2022-10-21T03:02:49.325Z,27.70
2022-10-21T03:05:51.571Z,27.70
2022-10-21T03:08:53.540Z,28.00
2022-10-21T03:11:55.670Z,27.90
2022-10-21T03:14:57.570Z,27.90
2022-10-21T03:17:59.636Z,27.80
2022-10-21T03:21:01.542Z,27.90
2022-10-21T03:24:08.069Z,27.90
2022-10-21T03:27:17.199Z,27.80
2022-10-21T03:30:19.544Z,27.90
2022-10-21T03:33:21.498Z,28.10
2022-10-21T03:36:23.575Z,28.10
2022-10-21T03:39:25.506Z,28.20
2022-10-21T03:42:28.905Z,28.10
2022-10-21T03:45:30.840Z,28.40
2022-10-21T03:48:33.021Z,28.20
2022-10-21T03:51:37.421Z,28.30
2022-10-21T03:54:39.498Z,28.10
2022-10-21T03:57:41.717Z,28.30
2022-10-21T04:00:44.500Z,28.00
2022-10-21T04:03:46.353Z,28.00
2022-10-21T04:06:48.544Z,27.80
2022-10-21T04:09:50.441Z,27.70
2022-10-21T04:12:52.539Z,27.80
2022-10-21T04:15:59.399Z,27.60
2022-10-21T04:19:02.135Z,27.70
2022-10-21T04:22:04.166Z,27.90
2022-10-21T04:25:06.707Z,27.80
2022-10-21T04:28:08.617Z,27.90
2022-10-21T04:31:10.793Z,27.80
2022-10-21T04:34:12.771Z,28.00
2022-10-21T04:37:14.905Z,28.10
2022-10-21T04:40:16.970Z,28.10
2022-10-21T04:43:19.067Z,28.00
2022-10-21T04:46:21.424Z,27.80
2022-10-21T04:49:23.624Z,28.10
2022-10-21T04:52:25.576Z,28.10
2022-10-21T04:55:28.147Z,27.90
2022-10-21T04:58:30.033Z,28.10
2022-10-21T05:01:32.308Z,28.10
2022-10-21T05:04:34.250Z,28.20
2022-10-21T05:07:36.345Z,28.50
2022-10-21T05:10:38.273Z,28.50
2022-10-21T05:13:40.342Z,28.50
2022-10-21T05:16:42.232Z,28.70
2022-10-21T05:19:44.279Z,28.60
2022-10-21T05:22:46.365Z,28.40
2022-10-21T05:25:48.882Z,28.40
2022-10-21T05:28:50.780Z,28.10
2022-10-21T05:31:55.031Z,27.90
2022-10-21T05:34:57.010Z,28.00
2022-10-21T05:37:59.279Z,28.10
2022-10-21T05:41:01.203Z,28.30
2022-10-21T05:44:03.434Z,27.90
2022-10-21T05:47:05.363Z,27.70
2022-10-21T05:50:09.501Z,27.80
2022-10-21T05:53:11.988Z,28.20
2022-10-21T05:56:14.380Z,28.10
2022-10-21T05:59:16.402Z,28.10
2022-10-21T06:02:18.525Z,28.40
2022-10-21T06:05:22.512Z,28.40
2022-10-21T06:08:26.609Z,28.30
2022-10-21T06:11:28.503Z,28.20
2022-10-21T06:14:30.628Z,28.00
2022-10-21T06:17:32.538Z,28.00
2022-10-21T06:20:34.647Z,28.20
2022-10-21T06:23:36.935Z,28.10
2022-10-21T06:26:39.147Z,28.00
2022-10-21T06:29:41.101Z,28.30
2022-10-21T06:32:43.352Z,28.50
2022-10-21T06:35:45.309Z,28.60
2022-10-21T06:38:47.969Z,28.70
2022-10-21T06:41:49.974Z,28.60
2022-10-21T06:44:53.530Z,28.70
2022-10-21T06:47:57.514Z,28.70
2022-10-21T06:51:07.664Z,28.60
2022-10-21T06:54:09.761Z,28.70
2022-10-21T06:57:12.042Z,29.00
2022-10-21T07:00:14.515Z,29.10
2022-10-21T07:03:16.667Z,29.40
2022-10-21T07:06:18.951Z,29.50
2022-10-21T07:09:21.168Z,29.70
2022-10-21T07:12:27.649Z,29.70
2022-10-21T07:15:29.961Z,30.10
2022-10-21T07:18:32.826Z,30.20
2022-10-21T07:21:35.081Z,30.20
2022-10-21T07:24:37.090Z,30.40
2022-10-21T07:27:41.244Z,30.60
2022-10-21T07:30:46.184Z,30.70
2022-10-21T07:33:49.080Z,30.70
2022-10-21T07:36:52.931Z,30.80
2022-10-21T07:39:55.286Z,30.80
2022-10-21T07:42:57.890Z,31.00
2022-10-21T07:46:03.074Z,31.00
2022-10-21T07:49:09.042Z,31.10
2022-10-21T07:52:11.302Z,30.90
2022-10-21T07:55:14.230Z,31.00
2022-10-21T07:58:16.503Z,30.90
2022-10-21T08:01:19.684Z,31.20
2022-10-21T08:04:29.916Z,31.30
2022-10-21T08:07:32.583Z,31.30
2022-10-21T08:10:40.353Z,31.20
2022-10-21T08:13:43.097Z,31.30
2022-10-21T08:16:45.357Z,31.20
2022-10-21T08:19:47.439Z,31.20
2022-10-21T08:22:49.691Z,31.00
2022-10-21T08:25:54.454Z,31.00
2022-10-21T08:32:04.721Z,30.80
2022-10-21T08:35:10.516Z,30.60
2022-10-21T08:38:13.237Z,30.70
2022-10-21T08:41:30.551Z,30.80
2022-10-21T08:44:48.105Z,30.80
2022-10-21T08:47:55.306Z,31.00
2022-10-21T08:50:58.587Z,31.20
2022-10-21T08:54:06.367Z,31.60
2022-10-21T08:57:11.026Z,31.50
2022-10-21T09:00:32.645Z,31.40
2022-10-21T09:03:56.315Z,31.70
2022-10-21T09:07:21.048Z,31.70
2022-10-21T09:10:37.122Z,31.70
2022-10-21T09:14:14.308Z,31.80
2022-10-21T09:17:48.332Z,31.90
2022-10-21T09:21:07.637Z,32.10
2022-10-21T09:24:18.986Z,32.10
2022-10-21T09:27:31.823Z,32.00
2022-10-21T09:30:41.424Z,32.30
2022-10-21T09:34:06.697Z,32.40
2022-10-21T09:37:22.350Z,32.60
2022-10-21T09:40:28.539Z,32.50
2022-10-21T09:43:31.283Z,32.70
2022-10-21T09:46:33.428Z,32.60
2022-10-21T09:50:02.126Z,32.70
2022-10-21T09:53:08.101Z,33.10
2022-10-21T09:56:16.497Z,33.20
2022-10-21T09:59:22.731Z,33.20
2022-10-21T10:02:36.101Z,33.50
2022-10-21T10:05:44.071Z,33.60
2022-10-21T10:08:47.626Z,33.70
2022-10-21T10:12:02.967Z,33.80
2022-10-21T10:15:32.110Z,33.90
2022-10-21T10:18:34.274Z,33.70
2022-10-21T10:21:36.431Z,33.90
2022-10-21T10:24:40.721Z,34.00
2022-10-21T10:27:56.698Z,33.90
2022-10-21T10:30:59.008Z,33.70
2022-10-21T10:34:08.741Z,33.60
2022-10-21T10:37:20.341Z,33.80
2022-10-21T10:40:39.512Z,33.90
2022-10-21T10:43:53.768Z,33.90
2022-10-21T10:47:00.016Z,33.80
2022-10-21T10:50:07.699Z,34.10
2022-10-21T10:53:34.163Z,34.30
2022-10-21T10:56:46.228Z,34.30
2022-10-21T11:00:03.994Z,34.40
2022-10-21T11:03:10.608Z,34.50
2022-10-21T11:06:18.335Z,34.40
2022-10-21T11:09:22.777Z,34.20
2022-10-21T11:12:27.805Z,34.20
2022-10-21T11:15:44.590Z,34.10
2022-10-21T11:19:02.669Z,34.30
2022-10-21T11:22:17.942Z,34.30
2022-10-21T11:25:46.144Z,34.20
2022-10-21T11:28:56.875Z,34.30
2022-10-21T11:32:39.827Z,34.40
2022-10-21T11:35:59.708Z,34.00
2022-10-21T11:39:35.905Z,34.30
2022-10-21T11:42:43.909Z,34.40
2022-10-21T11:45:49.515Z,34.70
2022-10-21T11:49:04.050Z,34.70
2022-10-21T11:52:11.837Z,34.70
2022-10-21T11:55:30.293Z,34.60
2022-10-21T11:58:53.111Z,34.80
2022-10-21T12:02:00.523Z,34.80
2022-10-21T12:05:28.823Z,34.70
2022-10-21T12:08:52.695Z,34.60
2022-10-21T12:12:19.281Z,34.60
2022-10-21T12:15:28.558Z,34.70
2022-10-21T12:18:31.215Z,34.70
2022-10-21T12:21:37.605Z,34.60
2022-10-21T12:25:11.971Z,34.40
2022-10-21T12:28:21.657Z,34.50
2022-10-21T12:34:57.446Z,34.30
2022-10-21T12:38:00.575Z,33.90
2022-10-21T12:41:21.275Z,33.80
2022-10-21T12:44:26.521Z,33.90
2022-10-21T12:47:44.548Z,33.90
2022-10-21T12:50:58.275Z,33.80
2022-10-21T12:54:03.045Z,33.70
2022-10-21T12:57:08.373Z,33.60
2022-10-21T13:03:50.170Z,34.20
2022-10-21T13:06:57.187Z,34.20
2022-10-21T13:09:59.042Z,34.30
2022-10-21T13:13:38.220Z,34.30
2022-10-21T13:16:41.249Z,34.30
2022-10-21T13:19:43.557Z,34.70
2022-10-21T13:22:47.622Z,34.70
2022-10-21T13:26:14.388Z,34.90
2022-10-21T13:29:34.560Z,34.90
2022-10-21T13:32:37.685Z,35.00
2022-10-21T13:36:05.852Z,34.90
2022-10-21T13:39:31.353Z,35.10
2022-10-21T13:42:41.417Z,35.30
2022-10-21T13:45:48.404Z,35.40
2022-10-21T13:48:50.472Z,35.30
2022-10-21T13:51:53.528Z,35.40
2022-10-21T13:55:00.299Z,35.20
2022-10-21T13:58:02.528Z,35.30
2022-10-21T14:01:25.318Z,35.30
2022-10-21T14:04:32.543Z,35.20
2022-10-21T14:07:34.614Z,35.30
2022-10-21T14:10:36.757Z,35.30
2022-10-21T14:13:39.784Z,35.20
2022-10-21T14:16:48.392Z,35.20
2022-10-21T14:19:55.813Z,35.00
2022-10-21T14:22:57.950Z,35.10
2022-10-21T14:26:18.634Z,35.10
2022-10-21T14:29:23.564Z,35.10
2022-10-21T14:32:26.922Z,35.00
2022-10-21T14:35:30.327Z,35.10
2022-10-21T14:38:42.836Z,35.00
2022-10-21T14:41:46.072Z,34.90
2022-10-21T14:44:51.731Z,34.80
2022-10-21T14:48:06.251Z,34.80
2022-10-21T14:51:17.714Z,34.80
2022-10-21T14:54:29.704Z,34.70
2022-10-21T14:57:43.639Z,34.70
2022-10-21T15:00:47.008Z,34.70
2022-10-21T15:04:26.949Z,34.60
2022-10-21T15:07:30.340Z,34.60
2022-10-21T15:10:33.846Z,34.50
2022-10-21T15:13:36.053Z,34.50
2022-10-21T15:16:39.302Z,34.40
2022-10-21T15:19:49.170Z,34.40
2022-10-21T15:22:51.137Z,34.40
2022-10-21T15:26:00.571Z,34.40
2022-10-21T15:29:24.037Z,34.30
2022-10-21T15:32:30.351Z,34.30
2022-10-21T15:35:32.574Z,34.20
2022-10-21T15:38:36.136Z,34.20
2022-10-21T15:41:39.139Z,34.10
2022-10-21T15:44:46.318Z,34.00
2022-10-21T15:47:54.080Z,33.90
2022-10-21T15:50:58.992Z,33.90
2022-10-21T15:54:01.788Z,33.90
2022-10-21T15:57:17.327Z,33.90
2022-10-21T16:00:22.304Z,33.90
2022-10-21T16:03:24.512Z,33.90
2022-10-21T16:06:26.478Z,33.80
2022-10-21T16:09:29.648Z,33.80
2022-10-21T16:12:31.634Z,33.80
2022-10-21T16:15:34.290Z,33.70
2022-10-21T16:18:36.245Z,33.70
2022-10-21T16:21:38.613Z,33.60
2022-10-21T16:24:40.787Z,33.60
2022-10-21T16:27:55.645Z,33.60
2022-10-21T16:31:00.473Z,33.60
2022-10-21T16:34:02.655Z,33.60
2022-10-21T16:37:21.466Z,33.60
2022-10-21T16:40:31.825Z,33.60
2022-10-21T16:43:33.741Z,33.70
2022-10-21T16:46:38.264Z,33.60
2022-10-21T16:49:40.161Z,33.60
2022-10-21T16:52:42.440Z,33.60
2022-10-21T16:55:44.546Z,33.60
2022-10-21T16:58:46.883Z,33.60
2022-10-21T17:01:48.971Z,33.50
2022-10-21T17:04:51.160Z,33.50
2022-10-21T17:07:54.192Z,33.60
2022-10-21T17:10:56.327Z,33.60
2022-10-21T17:13:58.593Z,33.60
2022-10-21T17:17:00.797Z,33.60
2022-10-21T17:20:02.800Z,33.50
2022-10-21T17:23:04.952Z,33.50
2022-10-21T17:26:06.862Z,33.50
2022-10-21T17:29:10.840Z,33.50
2022-10-21T17:32:12.929Z,33.60
2022-10-21T17:35:18.770Z,33.50
2022-10-21T17:38:20.835Z,33.50
2022-10-21T17:41:23.002Z,33.50
2022-10-21T17:44:24.979Z,33.50
2022-10-21T17:47:27.180Z,33.50
2022-10-21T17:50:29.475Z,33.50
2022-10-21T17:53:31.717Z,33.40
2022-10-21T17:56:34.611Z,33.40
2022-10-21T17:59:36.889Z,33.40
2022-10-21T18:02:39.195Z,33.50
2022-10-21T18:05:43.735Z,33.50
2022-10-21T18:08:47.166Z,33.40
2022-10-21T18:11:49.708Z,33.40
2022-10-21T18:14:52.447Z,33.50
2022-10-21T18:17:55.719Z,33.30
2022-10-21T18:21:10.927Z,33.30
2022-10-21T18:24:13.666Z,33.20
2022-10-21T18:27:16.074Z,33.10
2022-10-21T18:30:18.735Z,33.00
2022-10-21T18:33:21.084Z,32.90
2022-10-21T18:36:25.923Z,32.90
2022-10-21T18:39:28.238Z,32.90
2022-10-21T18:42:30.716Z,33.10
2022-10-21T18:45:33.236Z,33.00
2022-10-21T18:48:36.424Z,32.70
2022-10-21T18:51:39.476Z,32.80
2022-10-21T18:54:42.468Z,32.70
2022-10-21T18:57:44.874Z,32.90
2022-10-21T19:00:50.556Z,32.90
2022-10-21T19:03:55.234Z,32.90
2022-10-21T19:07:00.320Z,33.10
2022-10-21T19:10:05.369Z,33.00
2022-10-21T19:13:10.575Z,33.10
2022-10-21T19:16:13.537Z,33.00
2022-10-21T19:19:16.786Z,33.00
2022-10-21T19:22:20.030Z,33.00
2022-10-21T19:25:24.553Z,33.10
2022-10-21T19:28:27.023Z,33.00
2022-10-21T19:31:32.423Z,33.10
2022-10-21T19:34:38.362Z,33.10
2022-10-21T19:37:41.034Z,33.00
2022-10-21T19:40:43.555Z,33.00
2022-10-21T19:43:47.000Z,32.90
2022-10-21T19:46:50.510Z,33.00
2022-10-21T19:49:59.206Z,33.00
2022-10-21T19:53:01.618Z,33.00
2022-10-21T19:56:05.580Z,32.90
2022-10-21T19:59:08.315Z,33.00
2022-10-21T20:02:14.331Z,33.00
2022-10-21T20:05:16.618Z,32.90
2022-10-21T20:08:19.310Z,32.90
2022-10-21T20:11:23.801Z,32.90
2022-10-21T20:14:25.982Z,33.00
2022-10-21T20:17:28.053Z,33.10
2022-10-21T20:20:30.640Z,33.00
2022-10-21T20:23:33.147Z,33.10
2022-10-21T20:26:35.374Z,33.10
2022-10-21T20:29:37.563Z,33.00
2022-10-21T20:32:39.863Z,32.90
2022-10-21T20:35:42.454Z,32.90
2022-10-21T20:38:45.197Z,32.90
2022-10-21T20:41:47.153Z,33.00
2022-10-21T20:44:49.576Z,33.00
2022-10-21T20:47:51.642Z,32.90
2022-10-21T20:51:08.560Z,33.00
2022-10-21T20:54:19.023Z,32.90
2022-10-21T20:57:21.808Z,33.00
2022-10-21T21:00:24.253Z,32.90
2022-10-21T21:03:26.348Z,32.90
2022-10-21T21:06:28.922Z,32.90
2022-10-21T21:10:00.976Z,32.90
2022-10-21T21:12:53.368Z,32.90
2022-10-21T21:16:18.723Z,32.90
2022-10-21T21:19:20.809Z,32.70
2022-10-21T21:22:23.424Z,32.80
2022-10-21T21:25:25.474Z,32.80
2022-10-21T21:28:29.157Z,32.90
2022-10-21T21:31:54.943Z,32.90
2022-10-21T21:35:05.253Z,32.90
2022-10-21T21:38:08.923Z,32.80
2022-10-21T21:41:12.223Z,32.80
2022-10-21T21:44:14.442Z,32.80
2022-10-21T21:47:16.700Z,32.80
2022-10-21T21:50:18.907Z,32.70
2022-10-21T21:53:24.873Z,32.70
2022-10-21T21:56:28.133Z,32.70
2022-10-21T21:59:30.454Z,32.70
2022-10-21T22:02:32.490Z,32.70
2022-10-21T22:05:34.652Z,32.60
2022-10-21T22:08:40.127Z,32.70
2022-10-21T22:11:42.361Z,32.70
2022-10-21T22:14:44.345Z,32.60
2022-10-21T22:17:48.675Z,32.70
2022-10-21T22:20:50.692Z,32.80
2022-10-21T22:23:53.157Z,32.80
2022-10-21T22:26:55.107Z,32.90
2022-10-21T22:29:57.673Z,32.90
2022-10-21T22:32:59.531Z,33.00
2022-10-21T22:36:02.863Z,33.00
2022-10-21T22:39:04.856Z,33.10
2022-10-21T22:42:07.170Z,33.20
2022-10-21T22:45:09.245Z,33.10
2022-10-21T22:48:11.820Z,33.00
2022-10-21T22:51:13.712Z,33.00
2022-10-21T22:54:29.795Z,33.00
2022-10-21T22:57:37.889Z,32.90
2022-10-21T23:00:40.048Z,33.00
2022-10-21T23:03:42.080Z,33.00
2022-10-21T23:06:44.180Z,33.20
2022-10-21T23:09:46.093Z,33.00
2022-10-21T23:12:48.568Z,33.10
2022-10-21T23:15:50.592Z,32.90
2022-10-21T23:18:52.732Z,32.90
2022-10-21T23:21:54.870Z,32.90
2022-10-21T23:24:56.941Z,32.90
2022-10-21T23:27:58.919Z,32.90
2022-10-21T23:31:01.062Z,33.00
2022-10-21T23:34:03.718Z,33.10
2022-10-21T23:37:05.949Z,33.00
2022-10-21T23:40:08.562Z,33.00
2022-10-21T23:43:11.142Z,33.10
2022-10-21T23:46:13.150Z,33.10
2022-10-21T23:49:15.306Z,33.10
2022-10-21T23:52:17.461Z,33.10
2022-10-21T23:55:19.859Z,33.00
2022-10-21T23:58:21.898Z,32.90
